Batesville, Texas
Current Conditions -  °F | °C
As of 8:15 AM on Thursday 18 Dec 2014 (Local Time) from KUVA Reporting Station
Haze Haze  
Wind Chill: 59°   Ceiling: 400
Heat Index: 59°   Visibility: 3mi
Dew Point: 59°   Wind: 6mph
Humidity: 100%   Direction: 10°N
Pressure: 30.1"   Gusts: NA
Location:  28.95°N, 99.62°W
Report Text: KUVA 181415Z AUTO 01005KT 3SM BR OVC004 15/15 A3010 RMK AO2 T01500150
Loading
Personal Weather Stations






























Interactive Weather Map New forecast layout! Learn more

10-Day Weather Forecast

Advertisements
Track Severe Weather on mobile